createdAt,value
2019-05-03T00:02:37.989Z,2.90
2019-05-03T00:05:26.239Z,3.00
2019-05-03T00:08:02.157Z,2.90
2019-05-03T00:10:31.913Z,2.90
2019-05-03T00:13:02.015Z,3.00
2019-05-03T00:15:55.591Z,3.00
2019-05-03T00:18:25.491Z,3.00
2019-05-03T00:20:55.225Z,3.10
2019-05-03T00:23:24.850Z,3.00
2019-05-03T00:25:54.466Z,3.00
2019-05-03T00:28:24.151Z,3.00
2019-05-03T00:30:53.841Z,3.10
2019-05-03T00:33:23.522Z,3.10
2019-05-03T00:36:14.799Z,3.10
2019-05-03T00:38:44.554Z,3.20
2019-05-03T00:41:14.191Z,3.10
2019-05-03T00:43:43.835Z,3.10
2019-05-03T00:46:13.473Z,3.20
2019-05-03T00:48:43.175Z,3.20
2019-05-03T00:51:12.746Z,3.10
2019-05-03T00:53:42.534Z,3.10
2019-05-03T00:56:12.301Z,3.20
2019-05-03T00:58:57.539Z,3.20
2019-05-03T01:01:27.243Z,3.10
2019-05-03T01:03:56.877Z,3.00
2019-05-03T01:06:26.538Z,3.10
2019-05-03T01:08:56.136Z,3.10
2019-05-03T01:11:25.792Z,3.10
2019-05-03T01:13:55.450Z,3.20
2019-05-03T01:16:25.751Z,3.20
2019-05-03T01:18:55.415Z,3.20
2019-05-03T01:21:25.067Z,3.10
2019-05-03T01:23:54.713Z,3.20
2019-05-03T01:26:24.317Z,3.30
2019-05-03T01:28:53.959Z,3.20
2019-05-03T01:31:23.685Z,3.20
2019-05-03T01:33:53.299Z,3.20
2019-05-03T01:36:23.310Z,3.20
2019-05-03T01:38:53.264Z,3.10
2019-05-03T01:41:23.357Z,3.20
2019-05-03T01:43:52.987Z,3.20
2019-05-03T01:46:23.102Z,3.30
2019-05-03T01:49:23.897Z,3.30
2019-05-03T01:52:18.908Z,3.20
2019-05-03T01:54:48.522Z,3.10
2019-05-03T01:57:18.178Z,3.10
2019-05-03T01:59:47.984Z,3.10
2019-05-03T02:02:27.055Z,3.10
2019-05-03T02:05:24.467Z,3.20
2019-05-03T02:07:54.104Z,3.20
2019-05-03T02:10:23.738Z,3.30
2019-05-03T02:12:53.370Z,3.20
2019-05-03T02:15:22.998Z,3.20
2019-05-03T02:17:52.603Z,3.20
2019-05-03T02:20:22.238Z,3.30
2019-05-03T02:22:52.252Z,3.30
2019-05-03T02:25:21.965Z,3.20
2019-05-03T02:27:52.709Z,3.30
2019-05-03T02:30:25.004Z,3.20
2019-05-03T02:32:53.720Z,3.20
2019-05-03T02:35:23.338Z,3.30
2019-05-03T02:37:54.484Z,3.20
2019-05-03T02:40:24.984Z,3.20
2019-05-03T02:43:20.941Z,3.20
2019-05-03T02:46:09.470Z,3.20
2019-05-03T02:48:45.930Z,3.10
2019-05-03T02:51:15.787Z,3.10
2019-05-03T02:53:45.833Z,3.20
2019-05-03T02:56:22.230Z,3.10
2019-05-03T02:58:46.764Z,3.20
2019-05-03T03:01:16.513Z,3.10
2019-05-03T03:03:46.220Z,3.20
2019-05-03T03:06:17.519Z,3.20
2019-05-03T03:08:48.809Z,3.20
2019-05-03T03:11:19.593Z,3.20
2019-05-03T03:13:51.567Z,3.20
2019-05-03T03:16:25.029Z,3.20
2019-05-03T03:18:55.843Z,3.30
2019-05-03T03:21:30.012Z,3.20
2019-05-03T03:24:16.325Z,3.10
2019-05-03T03:26:47.426Z,3.10
2019-05-03T03:29:18.371Z,3.10
2019-05-03T03:31:58.368Z,3.10
2019-05-03T03:34:32.294Z,3.10
2019-05-03T03:37:06.507Z,3.20
2019-05-03T03:39:36.164Z,3.10
2019-05-03T03:42:05.775Z,3.20
2019-05-03T03:44:36.493Z,3.20
2019-05-03T03:47:06.823Z,3.20
2019-05-03T03:49:38.366Z,3.20
2019-05-03T03:52:09.909Z,3.20
2019-05-03T03:54:42.281Z,3.10
2019-05-03T03:57:15.945Z,3.20
2019-05-03T03:59:45.930Z,3.30
2019-05-03T04:02:16.451Z,3.20
2019-05-03T04:04:46.148Z,3.20
2019-05-03T04:07:16.340Z,3.20
2019-05-03T04:09:46.074Z,3.30
2019-05-03T04:12:16.421Z,3.30
2019-05-03T04:15:01.138Z,3.40
2019-05-03T04:17:58.856Z,3.40
2019-05-03T04:20:35.819Z,3.30
2019-05-03T04:23:05.397Z,3.40
2019-05-03T04:25:35.969Z,3.40
2019-05-03T04:28:05.966Z,3.40
2019-05-03T04:30:36.334Z,3.40
2019-05-03T04:33:06.489Z,3.40
2019-05-03T04:35:36.555Z,3.40
2019-05-03T04:38:06.366Z,3.30
2019-05-03T04:40:36.178Z,3.30
2019-05-03T04:43:06.230Z,3.30
2019-05-03T04:45:36.845Z,3.30
2019-05-03T04:48:06.799Z,3.40
2019-05-03T04:50:37.051Z,3.40
2019-05-03T04:53:06.822Z,3.40
2019-05-03T04:55:36.685Z,3.30
2019-05-03T04:58:06.333Z,3.30
2019-05-03T05:00:36.228Z,3.40
2019-05-03T05:03:06.228Z,3.40
2019-05-03T05:05:36.534Z,3.40
2019-05-03T05:08:06.265Z,3.50
2019-05-03T05:10:36.426Z,3.60
2019-05-03T05:13:06.276Z,3.70
2019-05-03T05:15:35.905Z,3.90
2019-05-03T05:18:10.948Z,4.00
2019-05-03T05:20:50.721Z,4.00
2019-05-03T05:23:20.360Z,4.00
2019-05-03T05:25:55.332Z,4.00
2019-05-03T05:28:35.510Z,4.10
2019-05-03T05:31:05.324Z,4.00
2019-05-03T05:33:35.360Z,4.00
2019-05-03T05:36:05.079Z,4.10
2019-05-03T05:38:34.806Z,4.30
2019-05-03T05:41:05.332Z,4.30
2019-05-03T05:43:35.665Z,4.30
2019-05-03T05:46:05.986Z,4.40
2019-05-03T05:48:40.733Z,4.30
2019-05-03T05:51:10.361Z,4.40
2019-05-03T05:53:39.984Z,4.50
2019-05-03T05:56:26.884Z,4.50
2019-05-03T05:59:04.435Z,4.50
2019-05-03T06:01:51.548Z,4.60
2019-05-03T06:04:21.183Z,4.70
2019-05-03T06:07:15.545Z,4.60
2019-05-03T06:10:14.732Z,4.70
2019-05-03T06:12:52.118Z,4.90
2019-05-03T06:15:39.019Z,5.10
2019-05-03T06:18:14.860Z,5.10
2019-05-03T06:21:00.998Z,5.20
2019-05-03T06:23:35.451Z,5.50
2019-05-03T06:26:25.290Z,5.60
2019-05-03T06:28:55.007Z,5.70
2019-05-03T06:31:42.082Z,5.90
2019-05-03T06:34:11.708Z,5.90
2019-05-03T06:36:44.256Z,6.10
2019-05-03T06:39:15.487Z,6.20
2019-05-03T06:41:45.146Z,6.50
2019-05-03T06:44:19.154Z,6.50
2019-05-03T06:46:47.479Z,6.80
2019-05-03T06:49:17.096Z,6.80
2019-05-03T06:51:49.703Z,6.70
2019-05-03T06:54:20.506Z,6.50
2019-05-03T06:56:49.294Z,6.60
2019-05-03T06:59:37.806Z,6.70
2019-05-03T07:02:21.508Z,6.70
2019-05-03T07:04:52.319Z,6.60
2019-05-03T07:07:48.344Z,6.80
2019-05-03T07:10:30.288Z,7.00
2019-05-03T07:13:01.323Z,7.20
2019-05-03T07:15:31.141Z,7.30
2019-05-03T07:18:00.768Z,7.50
2019-05-03T07:20:31.957Z,7.50
2019-05-03T07:23:01.619Z,7.50
2019-05-03T07:25:31.234Z,7.20
2019-05-03T07:28:01.147Z,7.40
2019-05-03T07:30:30.763Z,7.50
2019-05-03T07:33:04.860Z,7.30
2019-05-03T07:35:35.341Z,7.50
2019-05-03T07:38:05.449Z,7.40
2019-05-03T07:40:35.354Z,7.50
2019-05-03T07:43:05.009Z,7.60
2019-05-03T07:45:35.491Z,8.00
2019-05-03T07:48:05.173Z,8.60
2019-05-03T07:50:35.758Z,8.50
2019-05-03T07:53:05.406Z,8.40
2019-05-03T07:55:54.897Z,8.20
2019-05-03T07:58:25.315Z,7.80
2019-05-03T08:01:06.027Z,7.60
2019-05-03T08:03:28.322Z,7.70
2019-05-03T08:05:57.912Z,8.00
2019-05-03T08:08:27.901Z,8.30
2019-05-03T08:10:57.495Z,8.70
2019-05-03T08:13:27.128Z,9.00
2019-05-03T08:15:56.768Z,9.00
2019-05-03T08:18:26.410Z,9.00
2019-05-03T08:20:56.035Z,9.30
2019-05-03T08:23:29.845Z,9.80
2019-05-03T08:25:56.959Z,10.30
2019-05-03T08:28:26.610Z,9.80
2019-05-03T08:31:26.491Z,9.40
2019-05-03T08:34:25.605Z,9.50
2019-05-03T08:37:12.408Z,10.20
2019-05-03T08:39:42.087Z,10.80
2019-05-03T08:42:30.579Z,11.30
2019-05-03T08:45:00.258Z,10.70
2019-05-03T08:47:29.931Z,10.40
2019-05-03T08:49:59.570Z,10.00
2019-05-03T08:52:29.159Z,9.60
2019-05-03T08:54:58.811Z,9.90
2019-05-03T08:57:28.498Z,10.90
2019-05-03T08:59:58.153Z,11.50
2019-05-03T09:02:27.763Z,11.80
2019-05-03T09:04:57.393Z,11.30
2019-05-03T09:07:27.076Z,11.10
2019-05-03T09:10:12.559Z,10.40
2019-05-03T09:13:06.402Z,9.90
2019-05-03T09:15:36.396Z,9.50
2019-05-03T09:18:06.243Z,9.80
2019-05-03T09:20:35.871Z,10.40
2019-05-03T09:23:06.019Z,10.30
2019-05-03T09:25:35.829Z,10.00
2019-05-03T09:28:05.613Z,9.80
2019-05-03T09:30:35.798Z,9.60
2019-05-03T09:33:08.880Z,9.20
2019-05-03T09:35:36.840Z,8.90
2019-05-03T09:38:06.538Z,8.90
2019-05-03T09:40:36.168Z,9.00
2019-05-03T09:43:05.923Z,9.90
2019-05-03T09:45:35.564Z,10.10
2019-05-03T09:48:05.858Z,10.10
2019-05-03T09:50:36.017Z,9.90
2019-05-03T09:53:06.608Z,9.40
2019-05-03T09:55:39.697Z,9.10
2019-05-03T09:58:09.374Z,8.70
2019-05-03T10:00:38.984Z,8.60
2019-05-03T10:03:08.624Z,8.40
2019-05-03T10:05:38.322Z,8.50
2019-05-03T10:08:07.938Z,8.50
2019-05-03T10:10:55.005Z,9.00
2019-05-03T10:13:27.094Z,9.60
2019-05-03T10:15:55.945Z,9.80
2019-05-03T10:18:25.668Z,10.00
2019-05-03T10:20:56.273Z,9.80
2019-05-03T10:23:50.859Z,9.80
2019-05-03T10:26:20.472Z,9.60
2019-05-03T10:28:50.082Z,9.50
2019-05-03T10:31:21.263Z,9.80
2019-05-03T10:33:55.872Z,10.00
2019-05-03T10:36:25.475Z,10.00
2019-05-03T10:38:55.515Z,10.20
2019-05-03T10:41:25.266Z,10.50
2019-05-03T10:43:55.651Z,11.10
2019-05-03T10:46:25.419Z,11.20
2019-05-03T10:48:55.759Z,10.90
2019-05-03T10:51:27.455Z,10.70
2019-05-03T10:53:59.431Z,10.20
2019-05-03T10:56:57.074Z,10.00
2019-05-03T10:59:26.726Z,9.80
2019-05-03T11:02:03.861Z,10.50
2019-05-03T11:04:35.472Z,11.80
2019-05-03T11:07:05.564Z,13.00
2019-05-03T11:09:47.950Z,13.10
2019-05-03T11:12:06.877Z,12.80
2019-05-03T11:14:36.499Z,12.80
2019-05-03T11:17:06.263Z,12.50
2019-05-03T11:19:35.950Z,12.40
2019-05-03T11:22:05.762Z,12.80
2019-05-03T11:24:35.522Z,13.30
2019-05-03T11:27:09.389Z,14.50
2019-05-03T11:29:38.989Z,15.10
2019-05-03T11:32:15.362Z,15.50
2019-05-03T11:34:51.061Z,15.80
2019-05-03T11:37:39.824Z,15.00
2019-05-03T11:40:09.953Z,13.80
2019-05-03T11:42:39.826Z,12.90
2019-05-03T11:45:09.556Z,12.90
2019-05-03T11:47:39.189Z,13.80
2019-05-03T11:50:10.124Z,14.30
2019-05-03T11:52:39.725Z,14.90
2019-05-03T11:55:11.672Z,15.50
2019-05-03T11:57:40.767Z,15.20
2019-05-03T12:00:14.738Z,15.10
2019-05-03T12:03:21.537Z,15.00
2019-05-03T12:05:55.114Z,15.00
2019-05-03T12:08:25.272Z,14.70
2019-05-03T12:10:58.556Z,14.40
2019-05-03T12:13:30.775Z,14.60
2019-05-03T12:16:01.694Z,14.40
2019-05-03T12:18:44.842Z,14.20
2019-05-03T12:21:04.398Z,14.70
2019-05-03T12:23:36.841Z,14.60
2019-05-03T12:26:09.918Z,14.60
2019-05-03T12:28:36.855Z,15.20
2019-05-03T12:31:06.598Z,15.60
2019-05-03T12:33:36.231Z,15.70
2019-05-03T12:36:06.691Z,15.90
2019-05-03T12:38:36.282Z,15.80
2019-05-03T12:41:06.008Z,16.00
2019-05-03T12:43:35.735Z,15.80
2019-05-03T12:46:05.386Z,16.00
2019-05-03T12:48:35.536Z,15.80
2019-05-03T12:51:06.655Z,15.80
2019-05-03T12:53:36.775Z,15.40
2019-05-03T12:56:11.554Z,15.20
2019-05-03T12:58:54.965Z,15.10
2019-05-03T13:01:47.869Z,15.00
2019-05-03T13:04:20.620Z,15.10
2019-05-03T13:06:56.576Z,15.50
2019-05-03T13:09:26.250Z,15.20
2019-05-03T13:11:59.098Z,14.50
2019-05-03T13:14:28.115Z,14.50
2019-05-03T13:16:57.731Z,14.30
2019-05-03T13:19:27.346Z,14.00
2019-05-03T13:21:56.966Z,14.40
2019-05-03T13:24:26.570Z,14.30
2019-05-03T13:26:56.217Z,13.80
2019-05-03T13:29:25.846Z,14.30
2019-05-03T13:32:01.559Z,14.30
2019-05-03T13:34:26.767Z,14.00
2019-05-03T13:36:56.401Z,13.50
2019-05-03T13:39:26.559Z,13.00
2019-05-03T13:41:56.364Z,12.50
2019-05-03T13:44:26.000Z,12.20
2019-05-03T13:46:55.608Z,12.00
2019-05-03T13:49:26.376Z,12.40
2019-05-03T13:51:56.246Z,12.70
2019-05-03T13:54:25.852Z,12.30
2019-05-03T13:56:55.461Z,12.40
2019-05-03T13:59:25.084Z,12.50
2019-05-03T14:01:54.755Z,12.40
2019-05-03T14:04:24.594Z,12.70
2019-05-03T14:06:55.283Z,12.80
2019-05-03T14:09:25.232Z,13.70
2019-05-03T14:11:55.306Z,13.40
2019-05-03T14:14:25.882Z,13.50
2019-05-03T14:16:55.614Z,13.50
2019-05-03T14:19:31.638Z,13.90
2019-05-03T14:22:05.198Z,14.10
2019-05-03T14:24:35.147Z,13.90
2019-05-03T14:27:05.544Z,14.10
2019-05-03T14:29:35.274Z,14.20
2019-05-03T14:32:05.350Z,13.70
2019-05-03T14:34:35.887Z,13.00
2019-05-03T14:37:05.686Z,12.60
2019-05-03T14:39:35.300Z,13.10
2019-05-03T14:42:04.985Z,14.40
2019-05-03T14:44:35.747Z,16.00
2019-05-03T14:47:05.820Z,16.90
2019-05-03T14:49:35.482Z,17.50
2019-05-03T14:52:05.621Z,18.70
2019-05-03T14:54:36.941Z,19.00
2019-05-03T14:57:14.551Z,19.50
2019-05-03T15:00:12.261Z,19.70
2019-05-03T15:02:50.599Z,19.70
2019-05-03T15:05:17.191Z,19.30
2019-05-03T15:07:46.825Z,19.10
2019-05-03T15:10:16.783Z,19.00
2019-05-03T15:12:46.486Z,18.10
2019-05-03T15:15:16.652Z,17.30
2019-05-03T15:17:46.331Z,15.90
2019-05-03T15:20:16.717Z,15.30
2019-05-03T15:22:46.360Z,14.30
2019-05-03T15:25:16.166Z,13.80
2019-05-03T15:27:48.504Z,12.90
2019-05-03T15:30:17.271Z,12.40
2019-05-03T15:32:56.735Z,12.00
2019-05-03T15:35:18.576Z,11.80
2019-05-03T15:37:48.240Z,11.50
2019-05-03T15:40:18.283Z,10.90
2019-05-03T15:42:54.667Z,10.40
2019-05-03T15:45:45.100Z,10.40
2019-05-03T15:48:20.395Z,10.00
2019-05-03T15:50:49.997Z,9.90
2019-05-03T15:53:19.627Z,10.10
2019-05-03T15:55:49.271Z,10.10
2019-05-03T15:58:18.880Z,10.00
2019-05-03T16:00:48.700Z,9.50
2019-05-03T16:03:18.318Z,9.40
2019-05-03T16:05:47.960Z,9.30
2019-05-03T16:08:17.597Z,9.20
2019-05-03T16:10:47.223Z,8.80
2019-05-03T16:13:16.786Z,8.70
2019-05-03T16:15:46.422Z,8.30
2019-05-03T16:18:16.027Z,8.10
2019-05-03T16:20:45.642Z,8.00
2019-05-03T16:23:15.526Z,8.20
2019-05-03T16:25:45.192Z,7.90
2019-05-03T16:28:29.896Z,8.00
2019-05-03T16:31:02.851Z,8.20
2019-05-03T16:33:32.421Z,8.40
2019-05-03T16:36:02.126Z,8.30
2019-05-03T16:38:31.785Z,8.10
2019-05-03T16:41:01.711Z,7.70
2019-05-03T16:43:31.413Z,7.30
2019-05-03T16:46:01.078Z,7.30
2019-05-03T16:48:30.777Z,7.10
2019-05-03T16:51:00.412Z,7.10
2019-05-03T16:53:30.085Z,6.90
2019-05-03T16:55:59.768Z,6.90
2019-05-03T16:58:29.369Z,6.90
2019-05-03T17:00:59.123Z,6.70
2019-05-03T17:03:38.702Z,6.50
2019-05-03T17:06:28.876Z,6.40
2019-05-03T17:09:15.781Z,6.50
2019-05-03T17:11:55.996Z,6.50
2019-05-03T17:14:25.086Z,6.40
2019-05-03T17:16:55.657Z,6.20
2019-05-03T17:19:25.349Z,6.10
2019-05-03T17:21:54.959Z,6.20
2019-05-03T17:24:24.880Z,6.10
2019-05-03T17:26:55.163Z,6.10
2019-05-03T17:29:24.755Z,5.90
2019-05-03T17:31:55.084Z,5.60
2019-05-03T17:34:25.080Z,5.60
2019-05-03T17:36:54.744Z,5.50
2019-05-03T17:39:46.467Z,5.30
2019-05-03T17:42:22.995Z,5.20
2019-05-03T17:44:54.518Z,5.20
2019-05-03T17:47:25.578Z,4.90
2019-05-03T17:49:55.266Z,5.00
2019-05-03T17:52:45.083Z,5.10
2019-05-03T17:55:35.210Z,4.90
2019-05-03T17:58:15.399Z,4.90
2019-05-03T18:01:05.607Z,5.10
2019-05-03T18:03:38.852Z,5.00
2019-05-03T18:06:27.362Z,5.20
2019-05-03T18:09:14.957Z,5.40
2019-05-03T18:11:46.772Z,5.40
2019-05-03T18:14:16.461Z,5.50
2019-05-03T18:16:46.073Z,5.50
2019-05-03T18:19:15.723Z,5.50
2019-05-03T18:21:45.357Z,5.40
2019-05-03T18:24:15.362Z,5.30
2019-05-03T18:26:45.167Z,5.30
2019-05-03T18:29:14.801Z,5.40
2019-05-03T18:31:44.652Z,5.40
2019-05-03T18:34:19.927Z,5.40
2019-05-03T18:36:45.513Z,5.40
2019-05-03T18:39:15.331Z,5.20
2019-05-03T18:41:45.289Z,5.10
2019-05-03T18:44:34.448Z,5.30
2019-05-03T18:47:06.505Z,5.00
2019-05-03T18:49:36.179Z,4.90
2019-05-03T18:52:05.849Z,5.00
2019-05-03T18:54:35.451Z,5.00
2019-05-03T18:57:05.220Z,5.00
2019-05-03T18:59:34.895Z,4.80
2019-05-03T19:02:05.453Z,4.80
2019-05-03T19:04:45.210Z,4.80
2019-05-03T19:07:27.346Z,4.90
2019-05-03T19:10:10.355Z,4.90
2019-05-03T19:12:50.974Z,5.00
2019-05-03T19:15:20.594Z,5.00
2019-05-03T19:17:57.522Z,5.00
2019-05-03T19:20:27.198Z,5.00
2019-05-03T19:22:56.815Z,5.00
2019-05-03T19:25:26.688Z,4.90
2019-05-03T19:27:56.377Z,4.90
2019-05-03T19:30:25.985Z,4.90
2019-05-03T19:32:55.596Z,4.90
2019-05-03T19:35:27.709Z,5.00
2019-05-03T19:37:56.539Z,5.00
2019-05-03T19:40:26.193Z,5.00
2019-05-03T19:42:55.842Z,4.90
2019-05-03T19:45:25.519Z,5.00
2019-05-03T19:47:56.628Z,4.80
2019-05-03T19:50:27.309Z,4.70
2019-05-03T19:53:11.141Z,4.60
2019-05-03T19:55:40.775Z,4.50
2019-05-03T19:58:10.467Z,4.50
2019-05-03T20:01:08.248Z,4.50
2019-05-03T20:03:47.748Z,4.50
2019-05-03T20:06:29.643Z,4.50
2019-05-03T20:09:05.391Z,4.50
2019-05-03T20:11:35.051Z,4.30
2019-05-03T20:14:04.842Z,4.30
2019-05-03T20:16:34.751Z,4.20
2019-05-03T20:19:17.227Z,4.10
2019-05-03T20:21:35.841Z,4.10
2019-05-03T20:24:05.688Z,4.00
2019-05-03T20:26:35.291Z,4.00
2019-05-03T20:29:04.954Z,4.00
2019-05-03T20:31:35.317Z,3.90
2019-05-03T20:34:05.517Z,3.90
2019-05-03T20:36:35.224Z,3.90
2019-05-03T20:39:06.295Z,3.90
2019-05-03T20:41:35.896Z,3.80
2019-05-03T20:44:27.436Z,3.70
2019-05-03T20:47:07.143Z,3.70
2019-05-03T20:49:36.755Z,3.60
2019-05-03T20:52:06.349Z,3.60
2019-05-03T20:54:35.998Z,3.60
2019-05-03T20:57:05.708Z,3.50
2019-05-03T20:59:44.879Z,3.50
2019-05-03T21:02:06.673Z,3.30
2019-05-03T21:04:36.284Z,3.30
2019-05-03T21:07:06.213Z,3.40
2019-05-03T21:09:35.916Z,3.30
2019-05-03T21:12:05.541Z,3.30
2019-05-03T21:14:35.286Z,3.40
2019-05-03T21:17:25.359Z,3.30
2019-05-03T21:20:23.038Z,3.30
2019-05-03T21:22:54.770Z,3.20
2019-05-03T21:25:29.082Z,3.10
2019-05-03T21:27:58.749Z,3.20
2019-05-03T21:30:28.508Z,3.10
2019-05-03T21:32:58.234Z,3.10
2019-05-03T21:35:39.346Z,3.10
2019-05-03T21:37:59.291Z,3.00
2019-05-03T21:40:28.970Z,2.90
2019-05-03T21:42:58.964Z,2.90
2019-05-03T21:45:38.589Z,2.80
2019-05-03T21:48:14.448Z,2.80
2019-05-03T21:50:44.667Z,2.80
2019-05-03T21:53:14.811Z,2.80
2019-05-03T21:55:44.866Z,2.80
2019-05-03T21:58:16.494Z,2.80
2019-05-03T22:00:54.816Z,2.80
2019-05-03T22:03:25.238Z,2.80
2019-05-03T22:05:57.888Z,2.80
2019-05-03T22:08:26.315Z,2.80
2019-05-03T22:10:55.899Z,2.80
2019-05-03T22:13:25.572Z,2.80
2019-05-03T22:16:00.979Z,2.80
2019-05-03T22:18:31.529Z,2.80
2019-05-03T22:21:10.574Z,2.80
2019-05-03T22:23:57.737Z,2.80
2019-05-03T22:26:45.236Z,2.90
2019-05-03T22:29:17.175Z,2.90
2019-05-03T22:31:47.007Z,3.00
2019-05-03T22:34:16.597Z,2.90
2019-05-03T22:36:46.234Z,2.90
2019-05-03T22:39:15.900Z,2.90
2019-05-03T22:41:45.448Z,3.10
2019-05-03T22:44:17.035Z,3.10
2019-05-03T22:46:46.296Z,3.10
2019-05-03T22:49:15.932Z,3.10
2019-05-03T22:51:45.637Z,3.10
2019-05-03T22:54:15.544Z,3.00
2019-05-03T22:56:45.182Z,3.00
2019-05-03T22:59:15.120Z,3.00
2019-05-03T23:01:45.764Z,2.80
2019-05-03T23:04:15.832Z,2.80
2019-05-03T23:06:47.061Z,2.80
2019-05-03T23:09:16.866Z,2.70
2019-05-03T23:11:46.503Z,2.70
2019-05-03T23:14:16.144Z,2.60
2019-05-03T23:16:45.751Z,2.60
2019-05-03T23:19:15.350Z,2.60
2019-05-03T23:21:54.473Z,2.50
2019-05-03T23:24:24.696Z,2.60
2019-05-03T23:26:54.463Z,2.50
2019-05-03T23:29:24.066Z,2.50
2019-05-03T23:31:53.660Z,2.50
2019-05-03T23:34:24.721Z,2.50
2019-05-03T23:36:54.783Z,2.40
2019-05-03T23:39:24.965Z,2.40
2019-05-03T23:41:55.723Z,2.30
2019-05-03T23:44:25.407Z,2.30
2019-05-03T23:47:01.819Z,2.20
2019-05-03T23:49:31.451Z,2.20
2019-05-03T23:52:06.193Z,2.20
2019-05-03T23:54:35.817Z,2.20
2019-05-03T23:57:05.456Z,2.20
2019-05-03T23:59:35.359Z,2.10
